sensor_id;sensor_type;location;lat;lon;timestamp;temperature;humidity
19610;DHT22;9952;47.122;-1.638;2024-01-25T00:02:17;12.30;99.90
19610;DHT22;9952;47.122;-1.638;2024-01-25T00:06:58;12.30;99.90
19610;DHT22;9952;47.122;-1.638;2024-01-25T00:11:39;12.30;99.90
19610;DHT22;9952;47.122;-1.638;2024-01-25T00:16:19;12.20;99.90
19610;DHT22;9952;47.122;-1.638;2024-01-25T00:21:00;12.20;99.90
19610;DHT22;9952;47.122;-1.638;2024-01-25T00:25:40;12.20;99.90
19610;DHT22;9952;47.122;-1.638;2024-01-25T00:30:21;12.10;99.90
19610;DHT22;9952;47.122;-1.638;2024-01-25T00:35:02;12.10;99.90
19610;DHT22;9952;47.122;-1.638;2024-01-25T00:39:43;12.10;99.90
19610;DHT22;9952;47.122;-1.638;2024-01-25T00:44:24;12.00;99.90
19610;DHT22;9952;47.122;-1.638;2024-01-25T00:49:05;12.00;99.90
19610;DHT22;9952;47.122;-1.638;2024-01-25T00:53:46;11.90;99.90
19610;DHT22;9952;47.122;-1.638;2024-01-25T00:58:27;11.90;99.90
19610;DHT22;9952;47.122;-1.638;2024-01-25T01:03:08;11.90;99.90
19610;DHT22;9952;47.122;-1.638;2024-01-25T01:07:49;11.80;99.90
19610;DHT22;9952;47.122;-1.638;2024-01-25T01:12:30;11.70;99.90
19610;DHT22;9952;47.122;-1.638;2024-01-25T01:17:11;11.70;99.90
19610;DHT22;9952;47.122;-1.638;2024-01-25T01:21:51;11.50;99.90
19610;DHT22;9952;47.122;-1.638;2024-01-25T01:26:32;11.50;99.90
19610;DHT22;9952;47.122;-1.638;2024-01-25T01:31:12;11.40;99.90
19610;DHT22;9952;47.122;-1.638;2024-01-25T01:35:53;11.30;99.90
19610;DHT22;9952;47.122;-1.638;2024-01-25T01:40:34;11.20;99.90
19610;DHT22;9952;47.122;-1.638;2024-01-25T01:45:14;11.10;99.90
19610;DHT22;9952;47.122;-1.638;2024-01-25T01:49:55;11.00;99.90
19610;DHT22;9952;47.122;-1.638;2024-01-25T01:54:36;10.90;99.90
19610;DHT22;9952;47.122;-1.638;2024-01-25T01:59:17;10.70;99.90
19610;DHT22;9952;47.122;-1.638;2024-01-25T02:03:58;10.60;99.90
19610;DHT22;9952;47.122;-1.638;2024-01-25T02:08:38;10.50;99.90
19610;DHT22;9952;47.122;-1.638;2024-01-25T02:13:20;10.50;99.90
19610;DHT22;9952;47.122;-1.638;2024-01-25T02:18:01;10.40;99.90
19610;DHT22;9952;47.122;-1.638;2024-01-25T02:22:41;10.30;99.90
19610;DHT22;9952;47.122;-1.638;2024-01-25T02:27:22;10.40;99.90
19610;DHT22;9952;47.122;-1.638;2024-01-25T02:32:03;10.40;99.90
19610;DHT22;9952;47.122;-1.638;2024-01-25T02:36:44;10.40;99.90
19610;DHT22;9952;47.122;-1.638;2024-01-25T02:41:25;10.40;99.90
19610;DHT22;9952;47.122;-1.638;2024-01-25T02:46:05;10.40;99.90
19610;DHT22;9952;47.122;-1.638;2024-01-25T02:50:47;10.40;99.90
19610;DHT22;9952;47.122;-1.638;2024-01-25T02:55:28;10.50;99.90
19610;DHT22;9952;47.122;-1.638;2024-01-25T03:00:09;10.50;99.90
19610;DHT22;9952;47.122;-1.638;2024-01-25T03:04:49;10.60;99.90
19610;DHT22;9952;47.122;-1.638;2024-01-25T03:09:30;10.60;99.90
19610;DHT22;9952;47.122;-1.638;2024-01-25T03:14:11;10.50;99.90
19610;DHT22;9952;47.122;-1.638;2024-01-25T03:18:52;10.50;99.90
19610;DHT22;9952;47.122;-1.638;2024-01-25T03:23:33;10.50;99.90
19610;DHT22;9952;47.122;-1.638;2024-01-25T03:28:13;10.60;99.90
19610;DHT22;9952;47.122;-1.638;2024-01-25T03:32:56;10.60;99.90
19610;DHT22;9952;47.122;-1.638;2024-01-25T03:37:37;10.60;99.90
19610;DHT22;9952;47.122;-1.638;2024-01-25T03:42:18;10.60;99.90
19610;DHT22;9952;47.122;-1.638;2024-01-25T03:46:58;10.70;99.90
19610;DHT22;9952;47.122;-1.638;2024-01-25T03:51:39;10.70;99.90
19610;DHT22;9952;47.122;-1.638;2024-01-25T03:56:20;10.70;99.90
19610;DHT22;9952;47.122;-1.638;2024-01-25T04:01:01;10.70;99.90
19610;DHT22;9952;47.122;-1.638;2024-01-25T04:05:41;10.60;99.90
19610;DHT22;9952;47.122;-1.638;2024-01-25T04:10:22;10.60;99.90
19610;DHT22;9952;47.122;-1.638;2024-01-25T04:15:03;10.60;99.90
19610;DHT22;9952;47.122;-1.638;2024-01-25T04:19:44;10.60;99.90
19610;DHT22;9952;47.122;-1.638;2024-01-25T04:24:24;10.60;99.90
19610;DHT22;9952;47.122;-1.638;2024-01-25T04:29:05;10.50;99.90
19610;DHT22;9952;47.122;-1.638;2024-01-25T04:33:47;10.50;99.90
19610;DHT22;9952;47.122;-1.638;2024-01-25T04:38:28;10.50;99.90
19610;DHT22;9952;47.122;-1.638;2024-01-25T04:43:08;10.50;99.90
19610;DHT22;9952;47.122;-1.638;2024-01-25T04:47:49;10.40;99.90
19610;DHT22;9952;47.122;-1.638;2024-01-25T04:52:30;10.50;99.90
19610;DHT22;9952;47.122;-1.638;2024-01-25T04:57:10;10.50;99.90
19610;DHT22;9952;47.122;-1.638;2024-01-25T05:01:51;10.50;99.90
19610;DHT22;9952;47.122;-1.638;2024-01-25T05:06:34;10.40;99.90
19610;DHT22;9952;47.122;-1.638;2024-01-25T05:11:15;10.40;99.90
19610;DHT22;9952;47.122;-1.638;2024-01-25T05:15:55;10.50;99.90
19610;DHT22;9952;47.122;-1.638;2024-01-25T05:20:36;10.50;99.90
19610;DHT22;9952;47.122;-1.638;2024-01-25T05:25:18;10.60;99.90
19610;DHT22;9952;47.122;-1.638;2024-01-25T05:29:58;10.60;99.90
19610;DHT22;9952;47.122;-1.638;2024-01-25T05:34:39;10.60;99.90
19610;DHT22;9952;47.122;-1.638;2024-01-25T05:39:20;10.60;99.90
19610;DHT22;9952;47.122;-1.638;2024-01-25T05:44:00;10.60;99.90
19610;DHT22;9952;47.122;-1.638;2024-01-25T05:48:41;10.60;99.90
19610;DHT22;9952;47.122;-1.638;2024-01-25T05:53:22;10.60;99.90
19610;DHT22;9952;47.122;-1.638;2024-01-25T05:58:03;10.50;99.90
19610;DHT22;9952;47.122;-1.638;2024-01-25T06:02:43;10.40;99.90
19610;DHT22;9952;47.122;-1.638;2024-01-25T06:07:25;10.40;99.90
19610;DHT22;9952;47.122;-1.638;2024-01-25T06:12:05;10.40;99.90
19610;DHT22;9952;47.122;-1.638;2024-01-25T06:16:46;10.50;99.90
19610;DHT22;9952;47.122;-1.638;2024-01-25T06:21:27;10.50;99.90
19610;DHT22;9952;47.122;-1.638;2024-01-25T06:26:07;10.50;99.90
19610;DHT22;9952;47.122;-1.638;2024-01-25T06:30:48;10.50;99.90
19610;DHT22;9952;47.122;-1.638;2024-01-25T06:35:29;10.50;99.90
19610;DHT22;9952;47.122;-1.638;2024-01-25T06:40:10;10.50;99.90
19610;DHT22;9952;47.122;-1.638;2024-01-25T06:44:51;10.40;99.90
19610;DHT22;9952;47.122;-1.638;2024-01-25T06:49:31;10.40;99.90
19610;DHT22;9952;47.122;-1.638;2024-01-25T06:54:12;10.40;99.90
19610;DHT22;9952;47.122;-1.638;2024-01-25T06:58:53;10.50;99.90
19610;DHT22;9952;47.122;-1.638;2024-01-25T07:03:33;10.50;99.90
19610;DHT22;9952;47.122;-1.638;2024-01-25T07:08:14;10.50;99.90
19610;DHT22;9952;47.122;-1.638;2024-01-25T07:12:56;10.50;99.90
19610;DHT22;9952;47.122;-1.638;2024-01-25T07:17:37;10.50;99.90
19610;DHT22;9952;47.122;-1.638;2024-01-25T07:22:17;10.60;99.90
19610;DHT22;9952;47.122;-1.638;2024-01-25T07:26:59;10.60;99.90
19610;DHT22;9952;47.122;-1.638;2024-01-25T07:31:39;10.60;99.90
19610;DHT22;9952;47.122;-1.638;2024-01-25T07:36:20;10.60;99.90
19610;DHT22;9952;47.122;-1.638;2024-01-25T07:41:01;10.60;99.90
19610;DHT22;9952;47.122;-1.638;2024-01-25T07:45:42;10.60;99.90
19610;DHT22;9952;47.122;-1.638;2024-01-25T07:50:22;10.60;99.90
19610;DHT22;9952;47.122;-1.638;2024-01-25T07:55:03;10.70;99.90
19610;DHT22;9952;47.122;-1.638;2024-01-25T07:59:44;10.70;99.90
19610;DHT22;9952;47.122;-1.638;2024-01-25T08:04:25;10.70;99.90
19610;DHT22;9952;47.122;-1.638;2024-01-25T08:09:05;10.70;99.90
19610;DHT22;9952;47.122;-1.638;2024-01-25T08:13:46;10.70;99.90
19610;DHT22;9952;47.122;-1.638;2024-01-25T08:18:28;10.70;99.90
19610;DHT22;9952;47.122;-1.638;2024-01-25T08:23:10;10.80;99.90
19610;DHT22;9952;47.122;-1.638;2024-01-25T08:27:51;10.80;99.90
19610;DHT22;9952;47.122;-1.638;2024-01-25T08:32:31;10.90;99.90
19610;DHT22;9952;47.122;-1.638;2024-01-25T08:37:12;11.00;99.90
19610;DHT22;9952;47.122;-1.638;2024-01-25T08:41:52;11.10;99.90
19610;DHT22;9952;47.122;-1.638;2024-01-25T08:46:34;11.10;99.90
19610;DHT22;9952;47.122;-1.638;2024-01-25T08:51:14;11.20;99.90
19610;DHT22;9952;47.122;-1.638;2024-01-25T08:55:55;11.30;99.90
19610;DHT22;9952;47.122;-1.638;2024-01-25T09:00:36;11.30;99.90
19610;DHT22;9952;47.122;-1.638;2024-01-25T09:05:17;11.40;99.90
19610;DHT22;9952;47.122;-1.638;2024-01-25T09:09:58;11.50;99.90
19610;DHT22;9952;47.122;-1.638;2024-01-25T09:14:39;11.50;99.90
19610;DHT22;9952;47.122;-1.638;2024-01-25T09:19:19;11.60;99.90
19610;DHT22;9952;47.122;-1.638;2024-01-25T09:24:00;11.60;99.90
19610;DHT22;9952;47.122;-1.638;2024-01-25T09:28:41;11.80;99.90
19610;DHT22;9952;47.122;-1.638;2024-01-25T09:33:21;12.00;99.90
19610;DHT22;9952;47.122;-1.638;2024-01-25T09:38:02;12.10;99.90
19610;DHT22;9952;47.122;-1.638;2024-01-25T09:42:43;12.20;99.90
19610;DHT22;9952;47.122;-1.638;2024-01-25T09:47:24;12.40;99.90
19610;DHT22;9952;47.122;-1.638;2024-01-25T09:52:05;12.80;99.90
19610;DHT22;9952;47.122;-1.638;2024-01-25T09:56:45;13.00;99.90
19610;DHT22;9952;47.122;-1.638;2024-01-25T10:01:31;13.00;99.90
19610;DHT22;9952;47.122;-1.638;2024-01-25T10:06:12;13.00;99.90
19610;DHT22;9952;47.122;-1.638;2024-01-25T10:10:53;13.20;99.90
19610;DHT22;9952;47.122;-1.638;2024-01-25T10:15:34;13.40;99.90
19610;DHT22;9952;47.122;-1.638;2024-01-25T10:20:15;13.60;99.90
19610;DHT22;9952;47.122;-1.638;2024-01-25T10:24:56;13.70;99.90
19610;DHT22;9952;47.122;-1.638;2024-01-25T10:29:37;13.80;99.90
19610;DHT22;9952;47.122;-1.638;2024-01-25T10:34:18;13.90;99.90
19610;DHT22;9952;47.122;-1.638;2024-01-25T10:38:59;13.90;99.90
19610;DHT22;9952;47.122;-1.638;2024-01-25T10:43:45;13.80;99.90
19610;DHT22;9952;47.122;-1.638;2024-01-25T10:48:26;13.70;99.90
19610;DHT22;9952;47.122;-1.638;2024-01-25T10:53:08;13.60;99.90
19610;DHT22;9952;47.122;-1.638;2024-01-25T10:57:51;13.40;99.90
19610;DHT22;9952;47.122;-1.638;2024-01-25T11:02:35;13.40;99.90
19610;DHT22;9952;47.122;-1.638;2024-01-25T11:07:15;13.40;99.90
19610;DHT22;9952;47.122;-1.638;2024-01-25T11:11:59;13.30;99.90
19610;DHT22;9952;47.122;-1.638;2024-01-25T11:16:39;13.20;99.90
19610;DHT22;9952;47.122;-1.638;2024-01-25T11:21:29;13.30;99.90
19610;DHT22;9952;47.122;-1.638;2024-01-25T11:26:10;13.30;99.90
19610;DHT22;9952;47.122;-1.638;2024-01-25T11:30:51;13.20;99.90
19610;DHT22;9952;47.122;-1.638;2024-01-25T11:35:31;13.20;99.90
19610;DHT22;9952;47.122;-1.638;2024-01-25T11:40:13;13.20;99.90
19610;DHT22;9952;47.122;-1.638;2024-01-25T11:44:54;13.20;99.90
19610;DHT22;9952;47.122;-1.638;2024-01-25T11:49:35;13.20;99.90
19610;DHT22;9952;47.122;-1.638;2024-01-25T11:54:16;13.20;99.90
19610;DHT22;9952;47.122;-1.638;2024-01-25T11:58:57;13.20;99.90
19610;DHT22;9952;47.122;-1.638;2024-01-25T12:03:38;13.30;99.90
19610;DHT22;9952;47.122;-1.638;2024-01-25T12:08:19;13.30;99.90
19610;DHT22;9952;47.122;-1.638;2024-01-25T12:13:00;13.30;99.90
19610;DHT22;9952;47.122;-1.638;2024-01-25T12:17:41;13.40;99.90
19610;DHT22;9952;47.122;-1.638;2024-01-25T12:22:22;13.30;99.90
19610;DHT22;9952;47.122;-1.638;2024-01-25T12:27:03;13.20;99.90
19610;DHT22;9952;47.122;-1.638;2024-01-25T12:31:43;13.20;99.90
19610;DHT22;9952;47.122;-1.638;2024-01-25T12:36:24;13.40;99.90
19610;DHT22;9952;47.122;-1.638;2024-01-25T12:41:04;13.40;99.90
19610;DHT22;9952;47.122;-1.638;2024-01-25T12:45:45;13.50;99.90
19610;DHT22;9952;47.122;-1.638;2024-01-25T12:50:26;13.40;99.90
19610;DHT22;9952;47.122;-1.638;2024-01-25T12:55:07;13.40;99.90
19610;DHT22;9952;47.122;-1.638;2024-01-25T12:59:48;13.50;99.90
19610;DHT22;9952;47.122;-1.638;2024-01-25T13:04:29;13.50;99.90
19610;DHT22;9952;47.122;-1.638;2024-01-25T13:09:10;13.50;99.90
19610;DHT22;9952;47.122;-1.638;2024-01-25T13:13:51;13.60;99.90
19610;DHT22;9952;47.122;-1.638;2024-01-25T13:18:31;13.70;99.90
19610;DHT22;9952;47.122;-1.638;2024-01-25T13:23:12;13.70;99.90
19610;DHT22;9952;47.122;-1.638;2024-01-25T13:27:53;13.80;99.90
19610;DHT22;9952;47.122;-1.638;2024-01-25T13:32:33;13.70;99.90
19610;DHT22;9952;47.122;-1.638;2024-01-25T13:37:14;13.80;99.90
19610;DHT22;9952;47.122;-1.638;2024-01-25T13:41:55;13.80;99.90
19610;DHT22;9952;47.122;-1.638;2024-01-25T13:46:36;13.70;99.90
19610;DHT22;9952;47.122;-1.638;2024-01-25T13:51:17;13.70;99.90
19610;DHT22;9952;47.122;-1.638;2024-01-25T13:55:58;13.60;99.90
19610;DHT22;9952;47.122;-1.638;2024-01-25T14:00:39;13.60;99.90
19610;DHT22;9952;47.122;-1.638;2024-01-25T14:05:20;13.60;99.90
19610;DHT22;9952;47.122;-1.638;2024-01-25T14:10:01;13.60;99.90
19610;DHT22;9952;47.122;-1.638;2024-01-25T14:14:41;13.60;99.90
19610;DHT22;9952;47.122;-1.638;2024-01-25T14:19:22;13.60;99.90
19610;DHT22;9952;47.122;-1.638;2024-01-25T14:24:03;13.60;99.90
19610;DHT22;9952;47.122;-1.638;2024-01-25T14:28:43;13.60;99.90
19610;DHT22;9952;47.122;-1.638;2024-01-25T14:33:24;13.60;99.90
19610;DHT22;9952;47.122;-1.638;2024-01-25T14:38:05;13.60;99.90
19610;DHT22;9952;47.122;-1.638;2024-01-25T14:42:45;13.70;99.90
19610;DHT22;9952;47.122;-1.638;2024-01-25T14:47:26;13.70;99.90
19610;DHT22;9952;47.122;-1.638;2024-01-25T14:52:07;13.70;99.90
19610;DHT22;9952;47.122;-1.638;2024-01-25T14:56:47;13.70;99.90
19610;DHT22;9952;47.122;-1.638;2024-01-25T15:01:31;13.70;99.90
19610;DHT22;9952;47.122;-1.638;2024-01-25T15:06:12;13.70;99.90
19610;DHT22;9952;47.122;-1.638;2024-01-25T15:10:52;13.70;99.90
19610;DHT22;9952;47.122;-1.638;2024-01-25T15:15:34;13.70;99.90
19610;DHT22;9952;47.122;-1.638;2024-01-25T15:20:15;13.70;99.90
19610;DHT22;9952;47.122;-1.638;2024-01-25T15:24:55;13.70;99.90
19610;DHT22;9952;47.122;-1.638;2024-01-25T15:29:39;13.60;99.90
19610;DHT22;9952;47.122;-1.638;2024-01-25T15:34:20;13.60;99.90
19610;DHT22;9952;47.122;-1.638;2024-01-25T15:39:01;13.60;99.90
19610;DHT22;9952;47.122;-1.638;2024-01-25T15:43:43;13.60;99.90
19610;DHT22;9952;47.122;-1.638;2024-01-25T15:48:24;13.50;99.90
19610;DHT22;9952;47.122;-1.638;2024-01-25T15:53:05;13.50;99.90
19610;DHT22;9952;47.122;-1.638;2024-01-25T15:57:45;13.50;99.90
19610;DHT22;9952;47.122;-1.638;2024-01-25T16:02:26;13.50;99.90
19610;DHT22;9952;47.122;-1.638;2024-01-25T16:07:07;13.40;99.90
19610;DHT22;9952;47.122;-1.638;2024-01-25T16:11:47;13.30;99.90
19610;DHT22;9952;47.122;-1.638;2024-01-25T16:16:28;13.30;99.90
19610;DHT22;9952;47.122;-1.638;2024-01-25T16:21:09;13.30;99.90
19610;DHT22;9952;47.122;-1.638;2024-01-25T16:25:50;13.30;99.90
19610;DHT22;9952;47.122;-1.638;2024-01-25T16:30:31;13.30;99.90
19610;DHT22;9952;47.122;-1.638;2024-01-25T16:35:11;13.30;99.90
19610;DHT22;9952;47.122;-1.638;2024-01-25T16:39:52;13.30;99.90
19610;DHT22;9952;47.122;-1.638;2024-01-25T16:44:33;13.20;99.90
19610;DHT22;9952;47.122;-1.638;2024-01-25T16:49:13;13.20;99.90
19610;DHT22;9952;47.122;-1.638;2024-01-25T16:53:54;13.20;99.90
19610;DHT22;9952;47.122;-1.638;2024-01-25T16:58:35;13.10;99.90
19610;DHT22;9952;47.122;-1.638;2024-01-25T17:03:15;13.20;99.90
19610;DHT22;9952;47.122;-1.638;2024-01-25T17:07:56;13.10;99.90
19610;DHT22;9952;47.122;-1.638;2024-01-25T17:12:37;13.10;99.90
19610;DHT22;9952;47.122;-1.638;2024-01-25T17:17:17;13.10;99.90
19610;DHT22;9952;47.122;-1.638;2024-01-25T17:21:58;13.10;99.90
19610;DHT22;9952;47.122;-1.638;2024-01-25T17:26:39;13.10;99.90
19610;DHT22;9952;47.122;-1.638;2024-01-25T17:31:19;13.00;99.90
19610;DHT22;9952;47.122;-1.638;2024-01-25T17:36:00;13.00;99.90
19610;DHT22;9952;47.122;-1.638;2024-01-25T17:40:42;13.00;99.90
19610;DHT22;9952;47.122;-1.638;2024-01-25T17:45:23;13.00;99.90
19610;DHT22;9952;47.122;-1.638;2024-01-25T17:50:04;13.00;99.90
19610;DHT22;9952;47.122;-1.638;2024-01-25T17:54:45;12.90;99.90
19610;DHT22;9952;47.122;-1.638;2024-01-25T17:59:25;12.90;99.90
19610;DHT22;9952;47.122;-1.638;2024-01-25T18:04:09;12.90;99.90
19610;DHT22;9952;47.122;-1.638;2024-01-25T18:08:49;12.90;99.90
19610;DHT22;9952;47.122;-1.638;2024-01-25T18:13:31;12.80;99.90
19610;DHT22;9952;47.122;-1.638;2024-01-25T18:18:12;12.80;99.90
19610;DHT22;9952;47.122;-1.638;2024-01-25T18:22:53;12.80;99.90
19610;DHT22;9952;47.122;-1.638;2024-01-25T18:27:33;12.80;99.90
19610;DHT22;9952;47.122;-1.638;2024-01-25T18:32:14;12.80;99.90
19610;DHT22;9952;47.122;-1.638;2024-01-25T18:36:55;12.80;99.90
19610;DHT22;9952;47.122;-1.638;2024-01-25T18:41:35;12.80;99.90
19610;DHT22;9952;47.122;-1.638;2024-01-25T18:46:16;12.80;99.90
19610;DHT22;9952;47.122;-1.638;2024-01-25T18:50:57;12.80;99.90
19610;DHT22;9952;47.122;-1.638;2024-01-25T18:55:38;12.80;99.90
19610;DHT22;9952;47.122;-1.638;2024-01-25T19:00:19;12.80;99.90
19610;DHT22;9952;47.122;-1.638;2024-01-25T19:05:00;12.80;99.90
19610;DHT22;9952;47.122;-1.638;2024-01-25T19:09:41;12.80;99.90
19610;DHT22;9952;47.122;-1.638;2024-01-25T19:14:22;12.80;99.90
19610;DHT22;9952;47.122;-1.638;2024-01-25T19:19:03;12.80;99.90
19610;DHT22;9952;47.122;-1.638;2024-01-25T19:23:45;12.80;99.90
19610;DHT22;9952;47.122;-1.638;2024-01-25T19:28:26;12.80;99.90
19610;DHT22;9952;47.122;-1.638;2024-01-25T19:33:07;12.80;99.90
19610;DHT22;9952;47.122;-1.638;2024-01-25T19:37:47;12.80;99.90
19610;DHT22;9952;47.122;-1.638;2024-01-25T19:42:28;12.80;99.90
19610;DHT22;9952;47.122;-1.638;2024-01-25T19:47:09;12.80;99.90
19610;DHT22;9952;47.122;-1.638;2024-01-25T19:51:50;12.70;99.90
19610;DHT22;9952;47.122;-1.638;2024-01-25T19:56:30;12.70;99.90
19610;DHT22;9952;47.122;-1.638;2024-01-25T20:01:11;12.60;99.90
19610;DHT22;9952;47.122;-1.638;2024-01-25T20:05:55;12.70;99.90
19610;DHT22;9952;47.122;-1.638;2024-01-25T20:10:36;12.60;99.90
19610;DHT22;9952;47.122;-1.638;2024-01-25T20:15:16;12.60;99.90
19610;DHT22;9952;47.122;-1.638;2024-01-25T20:19:57;12.60;99.90
19610;DHT22;9952;47.122;-1.638;2024-01-25T20:24:38;12.60;99.90
19610;DHT22;9952;47.122;-1.638;2024-01-25T20:29:18;12.50;99.90
19610;DHT22;9952;47.122;-1.638;2024-01-25T20:33:59;12.50;99.90
19610;DHT22;9952;47.122;-1.638;2024-01-25T20:38:40;12.40;99.90
19610;DHT22;9952;47.122;-1.638;2024-01-25T20:43:20;12.50;99.90
19610;DHT22;9952;47.122;-1.638;2024-01-25T20:48:01;12.50;99.90
19610;DHT22;9952;47.122;-1.638;2024-01-25T20:52:42;12.50;99.90
19610;DHT22;9952;47.122;-1.638;2024-01-25T20:57:23;12.40;99.90
19610;DHT22;9952;47.122;-1.638;2024-01-25T21:02:04;12.40;99.90
19610;DHT22;9952;47.122;-1.638;2024-01-25T21:06:44;12.40;99.90
19610;DHT22;9952;47.122;-1.638;2024-01-25T21:11:26;12.40;99.90
19610;DHT22;9952;47.122;-1.638;2024-01-25T21:16:06;12.40;99.90
19610;DHT22;9952;47.122;-1.638;2024-01-25T21:20:47;12.40;99.90
19610;DHT22;9952;47.122;-1.638;2024-01-25T21:25:27;12.40;99.90
19610;DHT22;9952;47.122;-1.638;2024-01-25T21:30:08;12.40;99.90
19610;DHT22;9952;47.122;-1.638;2024-01-25T21:34:49;12.50;99.90
19610;DHT22;9952;47.122;-1.638;2024-01-25T21:39:30;12.50;99.90
19610;DHT22;9952;47.122;-1.638;2024-01-25T21:44:10;12.60;99.90
19610;DHT22;9952;47.122;-1.638;2024-01-25T21:48:53;12.50;99.90
19610;DHT22;9952;47.122;-1.638;2024-01-25T21:53:33;12.50;99.90
19610;DHT22;9952;47.122;-1.638;2024-01-25T21:58:14;12.50;99.90
19610;DHT22;9952;47.122;-1.638;2024-01-25T22:02:55;12.50;99.90
19610;DHT22;9952;47.122;-1.638;2024-01-25T22:07:35;12.50;99.90
19610;DHT22;9952;47.122;-1.638;2024-01-25T22:12:16;12.50;99.90
19610;DHT22;9952;47.122;-1.638;2024-01-25T22:16:57;12.40;99.90
19610;DHT22;9952;47.122;-1.638;2024-01-25T22:21:37;12.40;99.90
19610;DHT22;9952;47.122;-1.638;2024-01-25T22:26:18;12.40;99.90
19610;DHT22;9952;47.122;-1.638;2024-01-25T22:30:59;12.40;99.90
19610;DHT22;9952;47.122;-1.638;2024-01-25T22:35:39;12.40;99.90
19610;DHT22;9952;47.122;-1.638;2024-01-25T22:40:20;12.30;99.90
19610;DHT22;9952;47.122;-1.638;2024-01-25T22:45:01;12.30;99.90
19610;DHT22;9952;47.122;-1.638;2024-01-25T22:49:41;12.40;99.90
19610;DHT22;9952;47.122;-1.638;2024-01-25T22:54:22;12.30;99.90
19610;DHT22;9952;47.122;-1.638;2024-01-25T22:59:02;12.30;99.90
19610;DHT22;9952;47.122;-1.638;2024-01-25T23:03:43;12.30;99.90
19610;DHT22;9952;47.122;-1.638;2024-01-25T23:08:24;12.30;99.90
19610;DHT22;9952;47.122;-1.638;2024-01-25T23:13:04;12.30;99.90
19610;DHT22;9952;47.122;-1.638;2024-01-25T23:17:46;12.30;99.90
19610;DHT22;9952;47.122;-1.638;2024-01-25T23:22:26;12.30;99.90
19610;DHT22;9952;47.122;-1.638;2024-01-25T23:27:07;12.30;99.90
19610;DHT22;9952;47.122;-1.638;2024-01-25T23:31:49;12.30;99.90
19610;DHT22;9952;47.122;-1.638;2024-01-25T23:36:31;12.40;99.90
19610;DHT22;9952;47.122;-1.638;2024-01-25T23:41:14;12.40;99.90
19610;DHT22;9952;47.122;-1.638;2024-01-25T23:45:54;12.40;99.90
19610;DHT22;9952;47.122;-1.638;2024-01-25T23:50:35;12.40;99.90
19610;DHT22;9952;47.122;-1.638;2024-01-25T23:55:16;12.50;99.90
19610;DHT22;9952;47.122;-1.638;2024-01-25T23:59:56;12.50;99.90
